createdAt,value
2019-02-09T00:00:00.551Z,7.20
2019-02-09T00:02:34.376Z,7.20
2019-02-09T00:05:07.058Z,7.20
2019-02-09T00:07:38.728Z,7.20
2019-02-09T00:10:10.704Z,7.30
2019-02-09T00:12:42.086Z,7.20
2019-02-09T00:15:13.554Z,7.30
2019-02-09T00:17:44.910Z,7.20
2019-02-09T00:20:16.727Z,7.30
2019-02-09T00:22:48.431Z,7.30
2019-02-09T00:25:20.286Z,7.30
2019-02-09T00:27:52.567Z,7.30
2019-02-09T00:30:24.680Z,7.30
2019-02-09T00:32:55.976Z,7.30
2019-02-09T00:35:27.338Z,7.30
2019-02-09T00:37:59.375Z,7.20
2019-02-09T00:40:31.013Z,7.20
2019-02-09T00:43:02.007Z,7.20
2019-02-09T00:45:33.395Z,7.20
2019-02-09T00:48:04.944Z,7.30
2019-02-09T00:50:37.559Z,7.30
2019-02-09T00:53:09.893Z,7.20
2019-02-09T00:55:41.757Z,7.20
2019-02-09T00:58:14.765Z,7.20
2019-02-09T01:00:46.837Z,7.20
2019-02-09T01:03:19.097Z,7.10
2019-02-09T01:05:50.823Z,7.10
2019-02-09T01:08:22.655Z,7.10
2019-02-09T01:10:53.666Z,7.10
2019-02-09T01:13:25.639Z,7.10
2019-02-09T01:15:57.820Z,7.00
2019-02-09T01:18:29.409Z,7.00
2019-02-09T01:21:00.744Z,7.10
2019-02-09T01:23:32.878Z,7.10
2019-02-09T01:26:05.643Z,7.10
2019-02-09T01:28:36.981Z,7.10
2019-02-09T01:31:07.982Z,7.00
2019-02-09T01:33:39.222Z,7.00
2019-02-09T01:36:10.589Z,7.00
2019-02-09T01:38:42.678Z,7.00
2019-02-09T01:41:14.572Z,7.00
2019-02-09T01:43:45.887Z,7.00
2019-02-09T01:46:17.255Z,7.00
2019-02-09T01:48:49.009Z,7.00
2019-02-09T01:51:21.099Z,6.90
2019-02-09T01:53:52.087Z,6.90
2019-02-09T01:56:23.393Z,6.90
2019-02-09T01:58:54.995Z,6.90
2019-02-09T02:01:26.539Z,6.90
2019-02-09T02:03:58.086Z,6.90
2019-02-09T02:06:29.747Z,6.90
2019-02-09T02:09:01.204Z,6.90
2019-02-09T02:11:34.490Z,6.90
2019-02-09T02:14:07.099Z,6.90
2019-02-09T02:16:38.489Z,6.90
2019-02-09T02:19:09.899Z,6.90
2019-02-09T02:21:41.932Z,6.90
2019-02-09T02:24:13.894Z,6.90
2019-02-09T02:26:45.445Z,6.90
2019-02-09T02:29:17.054Z,6.90
2019-02-09T02:31:48.516Z,6.90
2019-02-09T02:34:20.565Z,6.80
2019-02-09T02:36:52.255Z,6.80
2019-02-09T02:39:23.516Z,6.90
2019-02-09T02:41:54.870Z,6.90
2019-02-09T02:44:26.285Z,6.90
2019-02-09T02:46:58.166Z,6.90
2019-02-09T02:49:29.139Z,6.90
2019-02-09T02:52:01.044Z,6.90
2019-02-09T02:54:32.622Z,6.80
2019-02-09T02:57:04.561Z,7.00
2019-02-09T02:59:36.134Z,7.00
2019-02-09T03:02:07.706Z,7.00
2019-02-09T03:04:39.446Z,7.00
2019-02-09T03:07:10.446Z,7.10
2019-02-09T03:09:41.850Z,7.10
2019-02-09T03:12:13.693Z,7.10
2019-02-09T03:14:45.432Z,7.10
2019-02-09T03:17:17.308Z,7.20
2019-02-09T03:19:48.910Z,7.30
2019-02-09T03:22:20.827Z,7.30
2019-02-09T03:24:52.575Z,7.20
2019-02-09T03:27:24.317Z,7.30
2019-02-09T03:29:55.710Z,7.20
2019-02-09T03:32:27.524Z,7.20
2019-02-09T03:34:59.368Z,7.20
2019-02-09T03:37:31.300Z,7.20
2019-02-09T03:40:03.022Z,7.20
2019-02-09T03:42:34.076Z,7.20
2019-02-09T03:45:08.528Z,7.10
2019-02-09T03:47:40.216Z,7.00
2019-02-09T03:50:13.443Z,6.90
2019-02-09T03:52:45.422Z,6.70
2019-02-09T03:55:16.729Z,6.60
2019-02-09T03:57:48.202Z,6.60
2019-02-09T04:00:22.163Z,6.50
2019-02-09T04:02:54.413Z,6.40
2019-02-09T04:05:25.927Z,6.30
2019-02-09T04:07:58.058Z,6.20
2019-02-09T04:10:30.224Z,6.20
2019-02-09T04:13:01.311Z,6.10
2019-02-09T04:15:34.145Z,6.00
2019-02-09T04:18:06.011Z,5.90
2019-02-09T04:20:37.611Z,5.80
2019-02-09T04:23:08.937Z,5.80
2019-02-09T04:25:40.897Z,5.70
2019-02-09T04:28:12.632Z,5.70
2019-02-09T04:30:43.904Z,5.70
2019-02-09T04:33:15.770Z,5.70
2019-02-09T04:35:47.218Z,5.70
2019-02-09T04:38:19.197Z,5.70
2019-02-09T04:40:50.937Z,5.70
2019-02-09T04:43:22.587Z,5.70
2019-02-09T04:45:53.638Z,5.60
2019-02-09T04:48:25.774Z,5.60
2019-02-09T04:50:57.650Z,5.60
2019-02-09T04:53:30.049Z,5.60
2019-02-09T04:56:01.689Z,5.70
2019-02-09T04:58:33.304Z,5.70
2019-02-09T05:01:13.632Z,5.70
2019-02-09T05:03:38.185Z,5.60
2019-02-09T05:06:09.488Z,5.60
2019-02-09T05:08:41.246Z,5.60
2019-02-09T05:11:12.658Z,5.60
2019-02-09T05:13:45.042Z,5.50
2019-02-09T05:16:16.022Z,5.50
2019-02-09T05:18:47.594Z,5.50
2019-02-09T05:21:19.215Z,5.50
2019-02-09T05:23:50.772Z,5.50
2019-02-09T05:26:22.864Z,5.50
2019-02-09T05:28:54.613Z,5.50
2019-02-09T05:31:26.274Z,5.50
2019-02-09T05:33:57.582Z,5.50
2019-02-09T05:36:29.175Z,5.50
2019-02-09T05:39:01.249Z,5.50
2019-02-09T05:41:33.999Z,5.50
2019-02-09T05:44:06.124Z,5.50
2019-02-09T05:46:37.976Z,5.50
2019-02-09T05:49:09.598Z,5.50
2019-02-09T05:51:40.899Z,5.50
2019-02-09T05:54:12.479Z,5.50
2019-02-09T05:56:44.524Z,5.50
2019-02-09T05:59:16.429Z,5.50
2019-02-09T06:01:47.768Z,5.50
2019-02-09T06:04:19.534Z,5.60
2019-02-09T06:06:50.830Z,5.70
2019-02-09T06:09:22.424Z,5.70
2019-02-09T06:11:53.744Z,5.80
2019-02-09T06:14:25.299Z,5.90
2019-02-09T06:16:56.346Z,5.90
2019-02-09T06:19:28.027Z,6.00
2019-02-09T06:21:59.649Z,6.00
2019-02-09T06:24:31.895Z,6.00
2019-02-09T06:27:03.228Z,6.10
2019-02-09T06:29:34.436Z,6.20
2019-02-09T06:32:06.727Z,6.30
2019-02-09T06:34:39.601Z,6.20
2019-02-09T06:37:11.872Z,6.20
2019-02-09T06:39:43.518Z,6.20
2019-02-09T06:42:15.112Z,6.20
2019-02-09T06:44:47.137Z,6.20
2019-02-09T06:47:22.389Z,6.20
2019-02-09T06:49:52.807Z,6.30
2019-02-09T06:52:24.142Z,6.30
2019-02-09T06:54:56.004Z,6.20
2019-02-09T06:57:27.384Z,6.30
2019-02-09T06:59:59.480Z,6.30
2019-02-09T07:02:31.049Z,6.30
2019-02-09T07:05:02.886Z,6.30
2019-02-09T07:07:34.786Z,6.40
2019-02-09T07:10:07.207Z,6.40
2019-02-09T07:12:38.203Z,6.30
2019-02-09T07:15:13.140Z,6.40
2019-02-09T07:17:45.197Z,6.50
2019-02-09T07:20:17.236Z,6.80
2019-02-09T07:22:49.327Z,6.90
2019-02-09T07:25:21.290Z,7.00
2019-02-09T07:27:55.227Z,7.40
2019-02-09T07:30:28.915Z,7.80
2019-02-09T07:33:00.600Z,8.10
2019-02-09T07:35:32.737Z,8.40
2019-02-09T07:38:04.437Z,8.80
2019-02-09T07:40:36.337Z,9.30
2019-02-09T07:43:07.728Z,9.60
2019-02-09T07:45:39.540Z,9.80
2019-02-09T07:48:11.270Z,9.80
2019-02-09T07:50:42.850Z,9.90
2019-02-09T07:53:14.148Z,10.00
2019-02-09T07:55:45.954Z,10.10
2019-02-09T07:58:17.609Z,10.10
2019-02-09T08:00:49.653Z,10.10
2019-02-09T08:03:21.017Z,10.20
2019-02-09T08:05:52.358Z,10.40
2019-02-09T08:08:24.504Z,10.40
2019-02-09T08:10:56.605Z,10.60
2019-02-09T08:13:28.905Z,10.80
2019-02-09T08:16:00.220Z,11.20
2019-02-09T08:18:31.873Z,11.50
2019-02-09T08:21:04.000Z,11.40
2019-02-09T08:23:35.776Z,11.40
2019-02-09T08:26:07.416Z,11.50
2019-02-09T08:28:38.433Z,11.60
2019-02-09T08:31:10.009Z,11.90
2019-02-09T08:33:41.239Z,12.00
2019-02-09T08:36:12.943Z,11.80
2019-02-09T08:38:44.583Z,11.50
2019-02-09T08:41:16.865Z,11.20
2019-02-09T08:43:48.700Z,11.30
2019-02-09T08:46:19.697Z,11.50
2019-02-09T08:48:51.320Z,11.60
2019-02-09T08:51:23.694Z,11.70
2019-02-09T08:53:55.636Z,11.90
2019-02-09T08:56:27.209Z,12.10
2019-02-09T08:58:58.802Z,12.30
2019-02-09T09:01:30.211Z,12.10
2019-02-09T09:04:02.069Z,12.10
2019-02-09T09:06:33.681Z,12.00
2019-02-09T09:09:09.207Z,12.00
2019-02-09T09:11:40.817Z,11.70
2019-02-09T09:14:12.583Z,11.40
2019-02-09T09:16:44.230Z,11.10
2019-02-09T09:19:15.884Z,10.90
2019-02-09T09:21:47.853Z,11.00
2019-02-09T09:24:19.503Z,11.20
2019-02-09T09:26:50.877Z,11.30
2019-02-09T09:29:23.151Z,11.60
2019-02-09T09:31:54.877Z,11.90
2019-02-09T09:34:26.611Z,11.70
2019-02-09T09:36:57.763Z,11.20
2019-02-09T09:39:29.527Z,11.00
2019-02-09T09:42:00.906Z,10.90
2019-02-09T09:44:32.022Z,10.70
2019-02-09T09:47:04.902Z,10.80
2019-02-09T09:49:36.145Z,10.70
2019-02-09T09:52:08.192Z,10.50
2019-02-09T09:54:39.672Z,10.30
2019-02-09T09:57:11.319Z,10.20
2019-02-09T09:59:43.099Z,10.10
2019-02-09T10:02:15.161Z,10.10
2019-02-09T10:04:46.800Z,10.20
2019-02-09T10:07:18.895Z,10.70
2019-02-09T10:09:50.213Z,11.30
2019-02-09T10:12:22.136Z,11.70
2019-02-09T10:14:54.429Z,11.80
2019-02-09T10:17:25.769Z,11.90
2019-02-09T10:19:57.342Z,11.80
2019-02-09T10:22:28.735Z,11.70
2019-02-09T10:25:00.671Z,11.50
2019-02-09T10:27:33.295Z,11.30
2019-02-09T10:30:06.731Z,11.10
2019-02-09T10:32:44.321Z,11.00
2019-02-09T10:35:12.317Z,11.00
2019-02-09T10:37:43.837Z,11.10
2019-02-09T10:40:21.846Z,11.00
2019-02-09T10:42:53.735Z,10.90
2019-02-09T10:45:27.479Z,10.90
2019-02-09T10:48:00.084Z,11.00
2019-02-09T10:50:40.455Z,11.00
2019-02-09T10:53:12.643Z,11.00
2019-02-09T10:55:44.571Z,10.90
2019-02-09T10:58:16.221Z,10.80
2019-02-09T11:00:51.699Z,10.50
2019-02-09T11:03:23.392Z,10.50
2019-02-09T11:05:54.879Z,10.50
2019-02-09T11:08:26.425Z,10.40
2019-02-09T11:10:57.513Z,10.60
2019-02-09T11:13:28.819Z,10.70
2019-02-09T11:16:01.540Z,10.90
2019-02-09T11:18:33.226Z,10.90
2019-02-09T11:21:05.487Z,10.80
2019-02-09T11:23:36.568Z,10.80
2019-02-09T11:26:08.649Z,11.00
2019-02-09T11:28:39.982Z,10.90
2019-02-09T11:31:11.808Z,10.90
2019-02-09T11:33:43.356Z,10.80
2019-02-09T11:36:14.908Z,10.80
2019-02-09T11:38:46.203Z,10.80
2019-02-09T11:41:17.582Z,10.80
2019-02-09T11:43:48.864Z,10.70
2019-02-09T11:46:21.015Z,10.70
2019-02-09T11:48:52.769Z,10.50
2019-02-09T11:51:24.354Z,10.50
2019-02-09T11:53:55.701Z,10.50
2019-02-09T11:56:27.454Z,10.50
2019-02-09T11:58:59.468Z,10.30
2019-02-09T12:01:30.742Z,10.30
2019-02-09T12:04:01.740Z,10.20
2019-02-09T12:06:34.028Z,10.20
2019-02-09T12:09:09.509Z,10.10
2019-02-09T12:11:40.585Z,10.00
2019-02-09T12:14:12.634Z,9.90
2019-02-09T12:16:44.998Z,9.90
2019-02-09T12:19:16.368Z,9.90
2019-02-09T12:21:47.442Z,9.80
2019-02-09T12:24:18.799Z,9.90
2019-02-09T12:26:50.361Z,10.00
2019-02-09T12:29:21.628Z,10.00
2019-02-09T12:31:53.287Z,10.10
2019-02-09T12:34:25.245Z,10.30
2019-02-09T12:36:57.007Z,10.40
2019-02-09T12:39:28.330Z,10.40
2019-02-09T12:42:00.227Z,10.30
2019-02-09T12:44:32.463Z,10.30
2019-02-09T12:47:03.728Z,10.40
2019-02-09T12:49:35.482Z,10.40
2019-02-09T12:52:07.550Z,10.40
2019-02-09T12:54:39.318Z,10.40
2019-02-09T12:57:11.083Z,10.40
2019-02-09T12:59:42.113Z,10.40
2019-02-09T13:02:15.752Z,10.50
2019-02-09T13:04:46.746Z,10.60
2019-02-09T13:07:17.835Z,10.70
2019-02-09T13:09:50.516Z,10.70
2019-02-09T13:12:23.015Z,10.60
2019-02-09T13:14:55.084Z,10.70
2019-02-09T13:17:27.443Z,10.60
2019-02-09T13:19:59.342Z,10.60
2019-02-09T13:22:31.771Z,10.60
2019-02-09T13:25:04.819Z,10.60
2019-02-09T13:27:37.245Z,10.70
2019-02-09T13:30:14.944Z,10.70
2019-02-09T13:32:47.891Z,10.70
2019-02-09T13:35:21.530Z,10.70
2019-02-09T13:37:53.882Z,10.70
2019-02-09T13:40:26.076Z,10.70
2019-02-09T13:42:58.460Z,10.70
2019-02-09T13:45:36.362Z,10.70
2019-02-09T13:48:08.282Z,10.60
2019-02-09T13:50:40.410Z,10.50
2019-02-09T13:53:12.012Z,10.50
2019-02-09T13:55:43.166Z,10.50
2019-02-09T13:58:14.812Z,10.40
2019-02-09T14:00:46.714Z,10.40
2019-02-09T14:03:18.773Z,10.40
2019-02-09T14:05:50.422Z,10.30
2019-02-09T14:08:22.274Z,10.30
2019-02-09T14:10:53.605Z,10.30
2019-02-09T14:13:25.141Z,10.30
2019-02-09T14:15:56.725Z,10.30
2019-02-09T14:18:28.271Z,10.20
2019-02-09T14:21:00.500Z,10.20
2019-02-09T14:23:31.998Z,10.20
2019-02-09T14:26:03.140Z,10.10
2019-02-09T14:28:35.113Z,10.10
2019-02-09T14:31:06.629Z,10.10
2019-02-09T14:33:37.906Z,10.10
2019-02-09T14:36:09.329Z,10.10
2019-02-09T14:38:41.719Z,10.10
2019-02-09T14:41:13.588Z,10.10
2019-02-09T14:43:45.342Z,10.00
2019-02-09T14:46:16.924Z,10.00
2019-02-09T14:48:48.413Z,10.00
2019-02-09T14:51:19.794Z,10.00
2019-02-09T14:53:51.305Z,10.00
2019-02-09T14:56:22.560Z,9.90
2019-02-09T14:58:54.108Z,9.90
2019-02-09T15:01:25.102Z,9.80
2019-02-09T15:04:02.676Z,9.80
2019-02-09T15:06:30.332Z,9.80
2019-02-09T15:09:01.307Z,9.90
2019-02-09T15:11:34.258Z,9.90
2019-02-09T15:14:06.240Z,9.90
2019-02-09T15:16:50.625Z,9.80
2019-02-09T15:19:26.881Z,9.70
2019-02-09T15:21:58.488Z,9.60
2019-02-09T15:24:30.250Z,9.60
2019-02-09T15:27:02.123Z,9.60
2019-02-09T15:29:33.844Z,9.70
2019-02-09T15:32:05.468Z,9.60
2019-02-09T15:34:37.279Z,9.60
2019-02-09T15:37:08.835Z,9.70
2019-02-09T15:39:40.541Z,9.70
2019-02-09T15:42:11.545Z,9.70
2019-02-09T15:44:43.178Z,9.70
2019-02-09T15:47:14.505Z,9.70
2019-02-09T15:49:46.057Z,9.60
2019-02-09T15:52:17.725Z,9.50
2019-02-09T15:54:49.392Z,9.50
2019-02-09T15:57:21.124Z,9.40
2019-02-09T15:59:52.693Z,9.30
2019-02-09T16:02:24.248Z,9.30
2019-02-09T16:04:56.413Z,9.20
2019-02-09T16:07:28.079Z,9.10
2019-02-09T16:09:59.378Z,8.90
2019-02-09T16:12:30.989Z,8.90
2019-02-09T16:15:02.613Z,8.80
2019-02-09T16:17:34.175Z,8.70
2019-02-09T16:20:07.600Z,8.70
2019-02-09T16:22:38.925Z,8.60
2019-02-09T16:25:11.192Z,8.50
2019-02-09T16:27:42.878Z,8.40
2019-02-09T16:30:20.783Z,8.40
2019-02-09T16:32:52.463Z,8.30
2019-02-09T16:35:25.309Z,8.20
2019-02-09T16:37:56.834Z,8.10
2019-02-09T16:40:29.179Z,8.10
2019-02-09T16:43:00.572Z,8.00
2019-02-09T16:45:33.866Z,8.00
2019-02-09T16:48:06.559Z,8.00
2019-02-09T16:50:38.284Z,7.90
2019-02-09T16:53:09.669Z,7.90
2019-02-09T16:55:40.983Z,7.90
2019-02-09T16:58:13.047Z,7.90
2019-02-09T17:00:45.389Z,7.90
2019-02-09T17:03:16.656Z,7.90
2019-02-09T17:05:48.482Z,8.00
2019-02-09T17:08:19.843Z,8.00
2019-02-09T17:10:51.692Z,8.00
2019-02-09T17:13:23.690Z,8.10
2019-02-09T17:15:54.765Z,8.10
2019-02-09T17:18:26.845Z,8.10
2019-02-09T17:20:58.411Z,8.10
2019-02-09T17:23:29.666Z,8.10
2019-02-09T17:26:01.760Z,8.00
2019-02-09T17:28:34.128Z,8.00
2019-02-09T17:31:06.284Z,7.90
2019-02-09T17:33:38.629Z,7.90
2019-02-09T17:36:10.180Z,7.80
2019-02-09T17:38:42.004Z,7.90
2019-02-09T17:41:13.525Z,7.90
2019-02-09T17:43:45.083Z,8.00
2019-02-09T17:46:18.380Z,8.10
2019-02-09T17:48:50.098Z,8.20
2019-02-09T17:51:21.648Z,8.20
2019-02-09T17:53:53.513Z,8.10
2019-02-09T17:56:25.072Z,7.70
2019-02-09T17:58:56.684Z,7.40
2019-02-09T18:01:27.676Z,7.20
2019-02-09T18:04:00.235Z,6.90
2019-02-09T18:06:32.085Z,6.80
2019-02-09T18:09:05.157Z,6.50
2019-02-09T18:11:36.868Z,6.40
2019-02-09T18:14:08.825Z,6.20
2019-02-09T18:16:40.648Z,6.10
2019-02-09T18:19:12.026Z,6.00
2019-02-09T18:21:43.261Z,6.00
2019-02-09T18:24:14.680Z,6.00
2019-02-09T18:26:46.490Z,5.90
2019-02-09T18:29:18.025Z,5.90
2019-02-09T18:31:49.517Z,5.90
2019-02-09T18:34:21.355Z,5.90
2019-02-09T18:36:54.347Z,5.90
2019-02-09T18:39:25.662Z,5.80
2019-02-09T18:41:57.191Z,5.80
2019-02-09T18:44:28.473Z,5.80
2019-02-09T18:47:00.381Z,5.70
2019-02-09T18:49:31.979Z,5.70
2019-02-09T18:52:03.771Z,5.60
2019-02-09T18:54:35.104Z,5.60
2019-02-09T18:57:07.167Z,5.70
2019-02-09T18:59:38.685Z,5.60
2019-02-09T19:02:10.546Z,5.60
2019-02-09T19:04:42.133Z,5.60
2019-02-09T19:07:13.814Z,5.50
2019-02-09T19:09:45.583Z,5.50
2019-02-09T19:12:16.559Z,5.50
2019-02-09T19:14:48.872Z,5.50
2019-02-09T19:17:21.913Z,5.50
2019-02-09T19:19:54.440Z,5.50
2019-02-09T19:22:26.030Z,5.50
2019-02-09T19:24:57.864Z,5.60
2019-02-09T19:27:29.232Z,5.60
2019-02-09T19:30:00.973Z,5.60
2019-02-09T19:32:32.375Z,5.60
2019-02-09T19:35:11.754Z,5.60
2019-02-09T19:37:37.396Z,5.70
2019-02-09T19:40:10.307Z,5.80
2019-02-09T19:42:41.838Z,5.80
2019-02-09T19:45:35.667Z,5.80
2019-02-09T19:48:07.819Z,5.80
2019-02-09T19:50:40.382Z,5.80
2019-02-09T19:53:11.677Z,5.90
2019-02-09T19:55:43.767Z,5.90
2019-02-09T19:58:14.746Z,5.90
2019-02-09T20:00:47.131Z,5.90
2019-02-09T20:03:19.029Z,6.00
2019-02-09T20:05:50.527Z,6.20
2019-02-09T20:08:21.814Z,6.20
2019-02-09T20:10:53.177Z,6.30
2019-02-09T20:13:24.977Z,6.30
2019-02-09T20:15:56.771Z,6.30
2019-02-09T20:18:28.070Z,6.30
2019-02-09T20:21:00.193Z,6.40
2019-02-09T20:23:31.471Z,6.40
2019-02-09T20:26:03.304Z,6.30
2019-02-09T20:28:35.312Z,6.30
2019-02-09T20:31:07.161Z,6.30
2019-02-09T20:33:38.719Z,6.40
2019-02-09T20:36:10.471Z,6.50
2019-02-09T20:38:42.276Z,6.40
2019-02-09T20:41:14.522Z,6.30
2019-02-09T20:43:45.923Z,6.30
2019-02-09T20:46:17.503Z,6.20
2019-02-09T20:48:49.510Z,6.20
2019-02-09T20:51:21.116Z,6.20
2019-02-09T20:53:52.745Z,6.20
2019-02-09T20:56:24.323Z,6.20
2019-02-09T20:58:56.044Z,6.20
2019-02-09T21:01:27.689Z,6.20
2019-02-09T21:03:58.954Z,6.20
2019-02-09T21:06:30.973Z,6.20
2019-02-09T21:09:02.556Z,6.20
2019-02-09T21:11:34.846Z,6.30
2019-02-09T21:14:06.536Z,6.40
2019-02-09T21:16:38.322Z,6.40
2019-02-09T21:19:09.613Z,6.40
2019-02-09T21:21:41.251Z,6.50
2019-02-09T21:24:13.816Z,6.50
2019-02-09T21:26:45.409Z,6.50
2019-02-09T21:29:16.714Z,6.50
2019-02-09T21:31:48.308Z,6.50
2019-02-09T21:34:20.378Z,6.50
2019-02-09T21:36:52.091Z,6.50
2019-02-09T21:39:24.119Z,6.50
2019-02-09T21:41:55.923Z,6.50
2019-02-09T21:44:27.733Z,6.40
2019-02-09T21:46:59.583Z,6.50
2019-02-09T21:49:31.754Z,6.50
2019-02-09T21:52:03.989Z,6.60
2019-02-09T21:54:35.558Z,6.50
2019-02-09T21:57:06.982Z,6.60
2019-02-09T21:59:38.520Z,6.60
2019-02-09T22:02:10.175Z,6.60
2019-02-09T22:04:41.754Z,6.60
2019-02-09T22:07:13.834Z,6.60
2019-02-09T22:09:45.826Z,6.60
2019-02-09T22:12:17.407Z,6.70
2019-02-09T22:14:48.784Z,6.70
2019-02-09T22:17:20.284Z,6.70
2019-02-09T22:19:52.308Z,6.70
2019-02-09T22:22:24.032Z,6.70
2019-02-09T22:24:55.759Z,6.70
2019-02-09T22:27:27.445Z,6.60
2019-02-09T22:29:58.464Z,6.50
2019-02-09T22:32:30.041Z,6.50
2019-02-09T22:35:01.583Z,6.50
2019-02-09T22:37:33.448Z,6.60
2019-02-09T22:40:07.460Z,6.60
2019-02-09T22:42:39.149Z,6.60
2019-02-09T22:45:11.341Z,6.50
2019-02-09T22:47:42.405Z,6.50
2019-02-09T22:50:20.716Z,6.40
2019-02-09T22:52:52.628Z,6.40
2019-02-09T22:55:24.242Z,6.30
2019-02-09T22:57:56.093Z,6.30
2019-02-09T23:01:04.889Z,6.30
2019-02-09T23:03:57.383Z,6.20
2019-02-09T23:06:53.057Z,6.20
2019-02-09T23:09:27.709Z,6.20
2019-02-09T23:11:59.859Z,6.10
2019-02-09T23:14:31.540Z,6.10
2019-02-09T23:17:03.469Z,6.10
2019-02-09T23:19:35.393Z,6.10
2019-02-09T23:22:06.969Z,6.10
2019-02-09T23:24:38.609Z,6.10
2019-02-09T23:27:10.219Z,6.10
2019-02-09T23:29:42.120Z,6.00
2019-02-09T23:32:13.734Z,6.00
2019-02-09T23:34:45.398Z,6.00
2019-02-09T23:37:18.288Z,6.00
2019-02-09T23:39:50.390Z,6.00
2019-02-09T23:42:22.465Z,6.00
2019-02-09T23:44:54.277Z,6.00
2019-02-09T23:47:25.888Z,6.00
2019-02-09T23:49:57.207Z,6.00
2019-02-09T23:52:29.269Z,5.90
2019-02-09T23:55:00.919Z,5.90
2019-02-09T23:57:31.891Z,6.00
